createdAt,value
2022-10-06T00:02:23.657Z,16.61
2022-10-06T00:04:50.292Z,16.65
2022-10-06T00:07:17.243Z,16.67
2022-10-06T00:09:43.911Z,16.62
2022-10-06T00:12:10.932Z,16.58
2022-10-06T00:14:37.903Z,16.59
2022-10-06T00:17:05.203Z,16.57
2022-10-06T00:19:31.837Z,16.54
2022-10-06T00:21:58.724Z,16.34
2022-10-06T00:24:25.321Z,16.19
2022-10-06T00:26:51.925Z,16.18
2022-10-06T00:29:18.936Z,16.25
2022-10-06T00:31:45.796Z,16.26
2022-10-06T00:34:13.047Z,16.24
2022-10-06T00:36:39.924Z,16.25
2022-10-06T00:39:06.530Z,16.23
2022-10-06T00:41:33.265Z,16.28
2022-10-06T00:44:00.211Z,16.18
2022-10-06T00:46:38.738Z,16.19
2022-10-06T00:49:16.729Z,16.15
2022-10-06T00:51:48.033Z,16.03
2022-10-06T00:54:16.478Z,15.96
2022-10-06T00:56:43.160Z,15.91
2022-10-06T00:59:14.341Z,15.90
2022-10-06T01:01:46.665Z,15.96
2022-10-06T01:04:15.510Z,16.04
2022-10-06T01:06:45.392Z,16.07
2022-10-06T01:09:14.775Z,16.17
2022-10-06T01:11:41.844Z,16.14
2022-10-06T01:14:08.392Z,16.09
2022-10-06T01:16:37.957Z,16.04
2022-10-06T01:19:10.630Z,16.04
2022-10-06T01:21:47.209Z,15.95
2022-10-06T01:24:14.182Z,16.02
2022-10-06T01:26:45.455Z,16.06
2022-10-06T01:29:13.059Z,16.02
2022-10-06T01:31:39.978Z,16.04
2022-10-06T01:34:06.636Z,15.98
2022-10-06T01:36:33.188Z,16.01
2022-10-06T01:38:59.723Z,16.00
2022-10-06T01:41:27.890Z,16.02
2022-10-06T01:43:54.505Z,15.93
2022-10-06T01:46:21.529Z,15.93
2022-10-06T01:48:48.255Z,15.87
2022-10-06T01:51:18.612Z,15.94
2022-10-06T01:53:45.119Z,15.97
2022-10-06T01:56:12.075Z,16.04
2022-10-06T01:58:38.637Z,15.92
2022-10-06T02:01:09.186Z,15.88
2022-10-06T02:03:39.357Z,15.92
2022-10-06T02:06:07.192Z,15.89
2022-10-06T02:08:34.385Z,15.93
2022-10-06T02:11:11.321Z,16.04
2022-10-06T02:13:38.493Z,16.02
2022-10-06T02:16:06.870Z,16.05
2022-10-06T02:18:34.470Z,15.97
2022-10-06T02:21:02.427Z,15.88
2022-10-06T02:23:30.180Z,15.94
2022-10-06T02:26:05.453Z,15.92
2022-10-06T02:28:32.983Z,15.91
2022-10-06T02:31:04.951Z,15.97
2022-10-06T02:33:31.694Z,15.94
2022-10-06T02:35:59.142Z,16.04
2022-10-06T02:38:26.427Z,16.02
2022-10-06T02:40:53.636Z,16.14
2022-10-06T02:43:21.464Z,16.11
2022-10-06T02:45:56.075Z,16.13
2022-10-06T02:48:27.678Z,16.18
2022-10-06T02:50:59.478Z,16.19
2022-10-06T02:53:26.958Z,16.14
2022-10-06T02:56:11.693Z,16.17
2022-10-06T02:58:42.928Z,16.22
2022-10-06T03:01:18.599Z,16.23
2022-10-06T03:03:48.703Z,16.14
2022-10-06T03:06:27.588Z,16.18
2022-10-06T03:08:58.824Z,16.18
2022-10-06T03:11:31.874Z,16.32
2022-10-06T03:13:58.830Z,16.27
2022-10-06T03:16:28.499Z,16.34
2022-10-06T03:18:56.050Z,16.47
2022-10-06T03:21:25.405Z,16.58
2022-10-06T03:23:53.970Z,16.63
2022-10-06T03:26:23.349Z,16.62
2022-10-06T03:28:50.454Z,16.67
2022-10-06T03:31:17.974Z,16.70
2022-10-06T03:33:44.707Z,16.71
2022-10-06T03:36:14.008Z,16.75
2022-10-06T03:38:41.054Z,16.72
2022-10-06T03:41:11.450Z,16.71
2022-10-06T03:43:39.159Z,16.65
2022-10-06T03:46:07.005Z,16.62
2022-10-06T03:48:35.413Z,16.67
2022-10-06T03:51:14.106Z,16.66
2022-10-06T03:53:44.532Z,16.60
2022-10-06T03:56:18.653Z,16.58
2022-10-06T03:58:49.136Z,16.44
2022-10-06T04:01:25.660Z,16.24
2022-10-06T04:03:54.250Z,15.92
2022-10-06T04:06:21.149Z,15.75
2022-10-06T04:08:49.415Z,15.61
2022-10-06T04:11:20.332Z,15.55
2022-10-06T04:13:48.365Z,15.46
2022-10-06T04:16:26.552Z,15.37
2022-10-06T04:18:55.400Z,15.31
2022-10-06T04:21:22.961Z,15.27
2022-10-06T04:23:49.623Z,15.28
2022-10-06T04:26:21.155Z,15.15
2022-10-06T04:28:47.879Z,14.30
2022-10-06T04:31:20.508Z,13.82
2022-10-06T04:33:50.322Z,13.55
2022-10-06T04:36:23.575Z,13.07
2022-10-06T04:38:52.134Z,12.96
2022-10-06T04:41:20.291Z,12.87
2022-10-06T04:43:48.532Z,12.87
2022-10-06T04:46:41.565Z,12.84
2022-10-06T04:49:04.139Z,12.75
2022-10-06T04:51:30.732Z,12.70
2022-10-06T04:53:57.302Z,12.75
2022-10-06T04:56:26.960Z,12.76
2022-10-06T04:58:55.317Z,12.86
2022-10-06T05:01:23.386Z,12.90
2022-10-06T05:03:52.661Z,12.82
2022-10-06T05:06:22.237Z,12.91
2022-10-06T05:08:50.209Z,12.87
2022-10-06T05:11:20.305Z,12.88
2022-10-06T05:13:56.266Z,12.97
2022-10-06T05:16:24.611Z,12.91
2022-10-06T05:18:51.447Z,12.96
2022-10-06T05:21:21.005Z,12.86
2022-10-06T05:23:48.143Z,12.89
2022-10-06T05:26:26.778Z,12.98
2022-10-06T05:28:53.405Z,12.98
2022-10-06T05:31:22.878Z,12.99
2022-10-06T05:33:49.708Z,12.84
2022-10-06T05:36:23.286Z,12.88
2022-10-06T05:38:50.328Z,12.96
2022-10-06T05:41:19.578Z,13.00
2022-10-06T05:43:46.774Z,13.07
2022-10-06T05:46:28.285Z,13.05
2022-10-06T05:49:10.473Z,13.00
2022-10-06T05:51:38.962Z,12.91
2022-10-06T05:54:06.004Z,12.99
2022-10-06T05:56:35.411Z,13.11
2022-10-06T05:59:02.196Z,13.06
2022-10-06T06:01:31.835Z,13.10
2022-10-06T06:04:02.761Z,13.09
2022-10-06T06:06:35.250Z,13.15
2022-10-06T06:09:09.296Z,13.22
2022-10-06T06:11:37.879Z,13.17
2022-10-06T06:14:10.285Z,13.08
2022-10-06T06:16:39.071Z,12.96
2022-10-06T06:19:08.293Z,12.92
2022-10-06T06:21:35.271Z,12.85
2022-10-06T06:24:03.135Z,12.78
2022-10-06T06:26:32.002Z,12.69
2022-10-06T06:29:02.780Z,12.70
2022-10-06T06:31:32.403Z,12.80
2022-10-06T06:34:00.641Z,12.84
2022-10-06T06:36:47.551Z,12.96
2022-10-06T06:39:14.859Z,13.04
2022-10-06T06:41:45.339Z,13.08
2022-10-06T06:44:13.960Z,13.08
2022-10-06T06:46:43.370Z,13.09
2022-10-06T06:49:12.049Z,13.17
2022-10-06T06:51:49.586Z,13.36
2022-10-06T06:54:17.042Z,13.45
2022-10-06T06:56:45.640Z,13.63
2022-10-06T06:59:13.758Z,13.79
2022-10-06T07:01:45.795Z,13.77
2022-10-06T07:04:14.728Z,14.14
2022-10-06T07:06:42.754Z,14.30
2022-10-06T07:09:14.347Z,14.61
2022-10-06T07:11:41.362Z,14.70
2022-10-06T07:14:10.040Z,14.74
2022-10-06T07:16:55.471Z,14.87
2022-10-06T07:19:40.739Z,14.83
2022-10-06T07:22:25.760Z,15.02
2022-10-06T07:25:11.631Z,14.94
2022-10-06T07:27:43.198Z,15.24
2022-10-06T07:30:13.215Z,15.45
2022-10-06T07:32:39.796Z,15.58
2022-10-06T07:35:07.259Z,15.46
2022-10-06T07:37:37.266Z,15.44
2022-10-06T07:40:06.675Z,16.07
2022-10-06T07:42:49.049Z,16.67
2022-10-06T07:45:39.232Z,16.58
2022-10-06T07:48:20.446Z,16.75
2022-10-06T07:50:51.006Z,17.15
2022-10-06T07:56:10.107Z,17.18
2022-10-06T08:07:10.331Z,17.76
2022-10-06T08:09:37.560Z,17.27
2022-10-06T08:12:24.117Z,17.66
2022-10-06T08:14:50.818Z,17.93
2022-10-06T08:17:17.661Z,18.14
2022-10-06T08:19:44.336Z,18.24
2022-10-06T08:22:12.718Z,18.72
2022-10-06T08:25:04.323Z,17.78
2022-10-06T08:27:28.500Z,18.43
2022-10-06T08:29:55.839Z,18.51
2022-10-06T08:32:24.710Z,18.29
2022-10-06T10:53:55.470Z,19.60
2022-10-06T10:56:26.222Z,19.48
2022-10-06T10:58:56.637Z,20.18
2022-10-06T11:01:47.942Z,19.80
2022-10-06T11:04:14.539Z,20.16
2022-10-06T11:07:14.869Z,20.28
2022-10-06T11:09:59.485Z,21.02
2022-10-06T11:12:33.962Z,20.30
2022-10-06T11:15:06.442Z,19.88
2022-10-06T11:17:46.916Z,20.26
2022-10-06T11:20:23.183Z,20.60
2022-10-06T11:23:14.959Z,20.95
2022-10-06T11:25:56.651Z,20.23
2022-10-06T11:28:32.129Z,20.30
2022-10-06T11:31:19.994Z,20.43
2022-10-06T11:33:58.911Z,20.03
2022-10-06T11:36:51.314Z,20.69
2022-10-06T11:39:27.151Z,21.13
2022-10-06T11:42:11.606Z,21.15
2022-10-06T11:44:59.956Z,20.36
2022-10-06T11:47:53.657Z,20.35
2022-10-06T11:50:42.644Z,19.89
2022-10-06T11:53:28.427Z,20.70
2022-10-06T11:56:16.862Z,21.15
2022-10-06T11:58:52.138Z,20.48
2022-10-06T12:01:30.724Z,20.24
2022-10-06T12:04:09.422Z,19.98
2022-10-06T12:06:41.896Z,20.01
2022-10-06T12:09:44.802Z,20.52
2022-10-06T12:12:20.990Z,20.75
2022-10-06T12:18:28.245Z,21.07
2022-10-06T12:21:17.676Z,20.68
2022-10-06T12:24:06.259Z,20.88
2022-10-06T12:26:54.051Z,20.53
2022-10-06T12:29:55.916Z,20.28
2022-10-06T12:32:55.647Z,20.27
2022-10-06T12:35:30.321Z,20.09
2022-10-06T12:38:20.921Z,19.97
2022-10-06T12:40:55.532Z,20.26
2022-10-06T12:43:22.538Z,19.63
2022-10-06T12:46:00.650Z,19.98
2022-10-06T12:48:52.110Z,19.91
2022-10-06T12:51:38.965Z,19.68
2022-10-06T12:54:11.356Z,19.15
2022-10-06T12:56:40.813Z,19.12
2022-10-06T12:59:20.379Z,18.85
2022-10-06T13:01:50.719Z,19.39
2022-10-06T13:04:34.113Z,19.60
2022-10-06T13:07:16.333Z,19.87
2022-10-06T13:09:43.359Z,19.76
2022-10-06T13:12:31.225Z,19.12
2022-10-06T13:15:15.789Z,19.42
2022-10-06T13:17:55.026Z,19.66
2022-10-06T13:20:36.819Z,19.58
2022-10-06T13:23:10.266Z,19.57
2022-10-06T13:25:48.523Z,19.80
2022-10-06T13:28:46.152Z,19.75
2022-10-06T13:31:21.616Z,19.17
2022-10-06T13:33:55.746Z,19.15
2022-10-06T13:36:23.644Z,18.56
2022-10-06T13:38:50.848Z,18.39
2022-10-06T13:41:20.557Z,18.75
2022-10-06T13:43:54.614Z,18.81
2022-10-06T13:46:25.205Z,18.83
2022-10-06T13:48:57.155Z,18.95
2022-10-06T13:51:29.826Z,18.97
2022-10-06T13:53:58.962Z,18.87
2022-10-06T13:56:34.708Z,18.82
2022-10-06T13:59:20.111Z,18.76
2022-10-06T14:01:46.878Z,18.36
2022-10-06T14:04:19.031Z,18.14
2022-10-06T14:07:01.454Z,17.93
2022-10-06T14:09:32.282Z,17.82
2022-10-06T14:12:11.626Z,17.96
2022-10-06T14:14:38.976Z,17.89
2022-10-06T14:17:06.240Z,17.65
2022-10-06T14:19:36.216Z,17.46
2022-10-06T14:22:04.751Z,17.40
2022-10-06T14:24:34.303Z,17.55
2022-10-06T14:27:02.718Z,17.71
2022-10-06T14:29:29.239Z,17.70
2022-10-06T14:31:55.776Z,17.90
2022-10-06T14:34:22.697Z,17.90
2022-10-06T14:36:55.302Z,17.94
2022-10-06T14:39:22.454Z,17.79
2022-10-06T14:41:49.057Z,17.72
2022-10-06T14:44:15.785Z,17.68
2022-10-06T14:46:47.093Z,17.74
2022-10-06T14:49:14.002Z,17.64
2022-10-06T14:51:42.505Z,17.53
2022-10-06T14:54:11.193Z,17.45
2022-10-06T14:56:39.870Z,17.59
2022-10-06T14:59:08.940Z,17.28
2022-10-06T15:01:37.847Z,17.04
2022-10-06T15:04:07.603Z,17.27
2022-10-06T15:06:52.643Z,17.02
2022-10-06T15:09:19.208Z,17.06
2022-10-06T15:11:45.813Z,17.02
2022-10-06T15:14:12.621Z,17.05
2022-10-06T15:16:42.181Z,16.76
2022-10-06T15:19:09.267Z,16.78
2022-10-06T15:21:39.053Z,16.76
2022-10-06T15:24:07.246Z,16.78
2022-10-06T15:26:52.680Z,16.76
2022-10-06T15:29:19.336Z,16.70
2022-10-06T15:31:52.930Z,16.62
2022-10-06T15:34:25.398Z,16.57
2022-10-06T15:36:53.129Z,16.52
2022-10-06T15:39:26.020Z,16.53
2022-10-06T15:41:53.202Z,16.57
2022-10-06T15:44:20.707Z,16.44
2022-10-06T15:46:49.836Z,16.39
2022-10-06T15:49:28.828Z,16.45
2022-10-06T15:51:59.283Z,16.43
2022-10-06T15:54:28.184Z,16.41
2022-10-06T15:56:57.500Z,16.39
2022-10-06T15:59:26.087Z,16.32
2022-10-06T16:01:58.265Z,16.27
2022-10-06T16:04:39.332Z,16.22
2022-10-06T16:07:07.805Z,16.16
2022-10-06T16:09:43.096Z,15.95
2022-10-06T16:12:11.860Z,15.86
2022-10-06T16:14:38.697Z,15.85
2022-10-06T16:17:07.009Z,15.76
2022-10-06T16:19:36.899Z,15.72
2022-10-06T16:22:05.938Z,15.68
2022-10-06T16:24:32.851Z,15.58
2022-10-06T16:27:00.238Z,15.51
2022-10-06T16:29:27.955Z,15.42
2022-10-06T16:31:54.976Z,15.35
2022-10-06T16:34:21.822Z,15.17
2022-10-06T16:36:48.324Z,14.85
2022-10-06T16:39:17.760Z,14.63
2022-10-06T16:41:44.936Z,14.50
2022-10-06T16:44:11.938Z,14.36
2022-10-06T16:46:38.840Z,14.27
2022-10-06T16:49:07.512Z,14.19
2022-10-06T16:51:40.618Z,14.09
2022-10-06T16:54:09.388Z,13.94
2022-10-06T16:56:41.011Z,13.80
2022-10-06T16:59:18.988Z,13.61
2022-10-06T17:01:46.404Z,13.52
2022-10-06T17:04:15.452Z,13.48
2022-10-06T17:06:44.715Z,13.40
2022-10-06T17:09:18.974Z,13.34
2022-10-06T17:11:48.136Z,13.21
2022-10-06T17:14:15.486Z,13.09
2022-10-06T17:16:43.536Z,13.01
2022-10-06T17:19:11.901Z,12.91
2022-10-06T17:21:48.779Z,12.88
2022-10-06T17:24:18.026Z,12.80
2022-10-06T17:26:47.342Z,12.73
2022-10-06T17:29:17.493Z,12.67
2022-10-06T17:31:45.023Z,12.59
2022-10-06T17:34:20.390Z,12.43
2022-10-06T17:36:49.988Z,12.41
2022-10-06T17:39:18.659Z,12.39
2022-10-06T17:41:47.114Z,12.33
2022-10-06T17:44:23.152Z,12.20
2022-10-06T17:46:55.524Z,12.04
2022-10-06T17:49:23.811Z,11.99
2022-10-06T17:51:51.582Z,12.00
2022-10-06T17:54:20.780Z,12.00
2022-10-06T17:56:49.217Z,11.99
2022-10-06T17:59:24.546Z,11.78
2022-10-06T18:01:52.173Z,11.79
2022-10-06T18:04:19.244Z,11.59
2022-10-06T18:06:47.273Z,11.61
2022-10-06T18:09:14.925Z,11.60
2022-10-06T18:11:43.673Z,11.59
2022-10-06T18:14:12.113Z,11.57
2022-10-06T18:16:41.389Z,11.45
2022-10-06T18:19:13.365Z,11.26
2022-10-06T18:21:41.472Z,11.16
2022-10-06T18:24:16.532Z,11.06
2022-10-06T18:26:48.256Z,11.09
2022-10-06T18:29:16.672Z,11.01
2022-10-06T18:31:44.695Z,10.99
2022-10-06T18:36:59.093Z,10.89
2022-10-06T18:39:25.618Z,10.80
2022-10-06T18:41:52.583Z,10.75
2022-10-06T18:44:39.105Z,10.76
2022-10-06T18:47:24.633Z,10.69
2022-10-06T18:49:52.883Z,10.55
2022-10-06T18:52:21.636Z,10.51
2022-10-06T18:54:48.914Z,10.44
2022-10-06T18:57:27.255Z,10.29
2022-10-06T18:59:55.333Z,10.23
2022-10-06T19:02:22.149Z,10.22
2022-10-06T19:04:50.275Z,10.24
2022-10-06T19:07:19.113Z,10.26
2022-10-06T19:09:46.987Z,10.28
2022-10-06T19:12:14.123Z,10.22
2022-10-06T19:14:47.110Z,10.26
2022-10-06T19:17:15.069Z,10.06
2022-10-06T19:19:51.364Z,9.97
2022-10-06T19:22:23.755Z,9.90
2022-10-06T19:24:51.232Z,9.87
2022-10-06T19:27:25.039Z,9.85
2022-10-06T19:29:54.389Z,9.84
2022-10-06T19:32:27.616Z,9.89
2022-10-06T19:34:58.943Z,9.96
2022-10-06T19:37:30.262Z,10.03
2022-10-06T19:39:57.494Z,10.02
2022-10-06T19:42:43.151Z,10.01
2022-10-06T19:45:12.084Z,10.06
2022-10-06T19:47:39.181Z,10.06
2022-10-06T19:50:12.601Z,10.04
2022-10-06T19:52:41.113Z,10.03
2022-10-06T19:55:07.778Z,9.97
2022-10-06T19:57:34.603Z,9.85
2022-10-06T20:00:01.596Z,9.79
2022-10-06T20:02:29.020Z,9.79
2022-10-06T20:05:00.187Z,9.77
2022-10-06T20:07:27.969Z,9.71
2022-10-06T20:09:55.064Z,9.74
2022-10-06T20:12:24.874Z,9.69
2022-10-06T20:14:53.591Z,9.67
2022-10-06T20:17:21.094Z,9.68
2022-10-06T20:19:48.084Z,9.63
2022-10-06T20:22:15.272Z,9.58
2022-10-06T20:24:41.891Z,9.62
2022-10-06T20:27:09.051Z,9.57
2022-10-06T20:29:35.776Z,9.58
2022-10-06T20:32:02.439Z,9.48
2022-10-06T20:34:32.165Z,9.52
2022-10-06T20:37:01.960Z,9.43
2022-10-06T20:40:09.023Z,9.30
2022-10-06T20:42:35.407Z,9.25
2022-10-06T20:45:01.938Z,9.25
2022-10-06T20:47:29.728Z,9.34
2022-10-06T20:49:56.213Z,9.35
2022-10-06T20:52:24.224Z,9.35
2022-10-06T20:54:51.363Z,9.42
2022-10-06T20:57:19.241Z,9.50
2022-10-06T20:59:46.245Z,9.44
2022-10-06T21:02:13.588Z,9.42
2022-10-06T21:04:41.524Z,9.50
2022-10-06T21:07:08.269Z,9.47
2022-10-06T21:09:35.027Z,9.55
2022-10-06T21:12:04.762Z,9.52
2022-10-06T21:14:31.527Z,9.45
2022-10-06T21:16:58.320Z,9.36
2022-10-06T21:19:25.441Z,9.32
2022-10-06T21:21:53.801Z,9.30
2022-10-06T21:24:21.058Z,9.25
2022-10-06T21:26:48.174Z,9.16
2022-10-06T21:29:15.902Z,9.21
2022-10-06T21:31:44.323Z,9.30
2022-10-06T21:34:11.367Z,9.25
2022-10-06T21:36:38.339Z,9.28
2022-10-06T21:39:06.054Z,9.34
2022-10-06T21:41:41.327Z,9.29
2022-10-06T21:44:10.169Z,9.26
2022-10-06T21:46:38.337Z,9.32
2022-10-06T21:49:07.733Z,9.30
2022-10-06T21:51:34.614Z,9.18
2022-10-06T21:54:01.827Z,9.18
2022-10-06T21:56:30.695Z,9.14
2022-10-06T21:58:58.112Z,9.06
2022-10-06T22:01:27.780Z,9.06
2022-10-06T22:03:54.785Z,9.05
2022-10-06T22:06:22.162Z,9.04
2022-10-06T22:08:49.240Z,9.01
2022-10-06T22:11:21.608Z,8.92
2022-10-06T22:13:50.973Z,8.92
2022-10-06T22:16:19.757Z,8.86
2022-10-06T22:18:47.042Z,8.93
2022-10-06T22:21:22.896Z,8.94
2022-10-06T22:24:05.076Z,8.91
2022-10-06T22:26:33.252Z,8.82
2022-10-06T22:29:00.697Z,8.86
2022-10-06T22:31:28.265Z,8.90
2022-10-06T22:33:56.830Z,8.86
2022-10-06T22:36:24.125Z,8.86
2022-10-06T22:38:50.866Z,8.90
2022-10-06T22:41:17.600Z,8.88
2022-10-06T22:43:44.172Z,8.88
2022-10-06T22:46:11.938Z,8.87
2022-10-06T22:48:39.205Z,8.82
2022-10-06T22:51:06.445Z,8.74
2022-10-06T22:53:33.705Z,8.64
2022-10-06T22:56:01.187Z,8.61
2022-10-06T22:58:28.476Z,8.63
2022-10-06T23:00:55.963Z,8.58
2022-10-06T23:03:23.361Z,8.54
2022-10-06T23:05:57.724Z,8.51
2022-10-06T23:08:25.669Z,8.50
2022-10-06T23:10:52.474Z,8.45
2022-10-06T23:13:19.585Z,8.44
2022-10-06T23:15:46.372Z,8.40
2022-10-06T23:18:13.815Z,8.37
2022-10-06T23:20:40.512Z,8.33
2022-10-06T23:23:07.115Z,8.23
2022-10-06T23:25:37.066Z,8.13
2022-10-06T23:28:03.763Z,8.06
2022-10-06T23:30:30.377Z,8.05
2022-10-06T23:32:56.973Z,8.06
2022-10-06T23:35:23.607Z,8.07
2022-10-06T23:37:50.192Z,8.10
2022-10-06T23:40:16.875Z,8.07
2022-10-06T23:42:43.455Z,8.03
2022-10-06T23:45:10.530Z,8.06
2022-10-06T23:47:37.074Z,8.04
2022-10-06T23:50:03.854Z,8.12
2022-10-06T23:52:30.482Z,8.07
2022-10-06T23:54:57.060Z,8.05
2022-10-06T23:57:23.697Z,8.04
2022-10-06T23:59:50.302Z,8.07
